sensor_id;sensor_type;location;lat;lon;timestamp;P1;durP1;ratioP1;P2;durP2;ratioP2
4313;SDS011;2170;48.794;9.182;2022-07-23T00:00:04;6.80;;;6.20;;
4313;SDS011;2170;48.794;9.182;2022-07-23T00:02:34;7.30;;;6.70;;
4313;SDS011;2170;48.794;9.182;2022-07-23T00:05:01;6.20;;;5.80;;
4313;SDS011;2170;48.794;9.182;2022-07-23T00:07:28;6.10;;;5.60;;
4313;SDS011;2170;48.794;9.182;2022-07-23T00:09:55;6.00;;;5.60;;
4313;SDS011;2170;48.794;9.182;2022-07-23T00:12:22;6.17;;;5.77;;
4313;SDS011;2170;48.794;9.182;2022-07-23T00:14:49;6.37;;;5.97;;
4313;SDS011;2170;48.794;9.182;2022-07-23T00:17:16;6.13;;;5.70;;
4313;SDS011;2170;48.794;9.182;2022-07-23T00:19:44;6.47;;;6.00;;
4313;SDS011;2170;48.794;9.182;2022-07-23T00:22:12;6.27;;;5.87;;
4313;SDS011;2170;48.794;9.182;2022-07-23T00:24:39;7.33;;;6.70;;
4313;SDS011;2170;48.794;9.182;2022-07-23T00:27:06;6.33;;;5.83;;
4313;SDS011;2170;48.794;9.182;2022-07-23T00:29:33;6.33;;;5.93;;
4313;SDS011;2170;48.794;9.182;2022-07-23T00:32:00;6.37;;;5.83;;
4313;SDS011;2170;48.794;9.182;2022-07-23T00:34:27;6.33;;;5.80;;
4313;SDS011;2170;48.794;9.182;2022-07-23T00:36:55;5.90;;;5.37;;
4313;SDS011;2170;48.794;9.182;2022-07-23T00:39:22;6.00;;;5.50;;
4313;SDS011;2170;48.794;9.182;2022-07-23T00:41:50;5.73;;;5.33;;
4313;SDS011;2170;48.794;9.182;2022-07-23T00:44:18;6.37;;;5.83;;
4313;SDS011;2170;48.794;9.182;2022-07-23T00:46:46;6.00;;;5.60;;
4313;SDS011;2170;48.794;9.182;2022-07-23T00:49:14;5.53;;;5.03;;
4313;SDS011;2170;48.794;9.182;2022-07-23T00:51:41;5.03;;;4.73;;
4313;SDS011;2170;48.794;9.182;2022-07-23T00:54:10;5.63;;;5.23;;
4313;SDS011;2170;48.794;9.182;2022-07-23T00:56:37;6.20;;;5.80;;
4313;SDS011;2170;48.794;9.182;2022-07-23T00:59:05;6.00;;;5.60;;
4313;SDS011;2170;48.794;9.182;2022-07-23T01:01:32;5.60;;;5.20;;
4313;SDS011;2170;48.794;9.182;2022-07-23T01:03:59;5.97;;;5.57;;
4313;SDS011;2170;48.794;9.182;2022-07-23T01:06:26;6.00;;;5.60;;
4313;SDS011;2170;48.794;9.182;2022-07-23T01:08:53;6.20;;;5.80;;
4313;SDS011;2170;48.794;9.182;2022-07-23T01:11:23;6.17;;;5.67;;
4313;SDS011;2170;48.794;9.182;2022-07-23T01:13:50;6.13;;;5.63;;
4313;SDS011;2170;48.794;9.182;2022-07-23T01:16:17;5.70;;;5.40;;
4313;SDS011;2170;48.794;9.182;2022-07-23T01:18:44;5.53;;;5.23;;
4313;SDS011;2170;48.794;9.182;2022-07-23T01:21:11;5.77;;;5.13;;
4313;SDS011;2170;48.794;9.182;2022-07-23T01:23:40;7.40;;;6.90;;
4313;SDS011;2170;48.794;9.182;2022-07-23T01:26:07;6.40;;;5.80;;
4313;SDS011;2170;48.794;9.182;2022-07-23T01:28:34;6.30;;;5.80;;
4313;SDS011;2170;48.794;9.182;2022-07-23T01:31:02;6.10;;;5.70;;
4313;SDS011;2170;48.794;9.182;2022-07-23T01:33:29;6.13;;;5.73;;
4313;SDS011;2170;48.794;9.182;2022-07-23T01:35:56;6.27;;;5.87;;
4313;SDS011;2170;48.794;9.182;2022-07-23T01:38:23;5.73;;;5.43;;
4313;SDS011;2170;48.794;9.182;2022-07-23T01:40:51;6.07;;;5.67;;
4313;SDS011;2170;48.794;9.182;2022-07-23T01:43:18;5.87;;;5.50;;
4313;SDS011;2170;48.794;9.182;2022-07-23T01:45:45;6.97;;;6.40;;
4313;SDS011;2170;48.794;9.182;2022-07-23T01:48:12;6.03;;;5.53;;
4313;SDS011;2170;48.794;9.182;2022-07-23T01:50:40;6.30;;;5.83;;
4313;SDS011;2170;48.794;9.182;2022-07-23T01:53:07;6.77;;;6.13;;
4313;SDS011;2170;48.794;9.182;2022-07-23T01:55:34;6.27;;;5.63;;
4313;SDS011;2170;48.794;9.182;2022-07-23T01:58:02;5.50;;;5.10;;
4313;SDS011;2170;48.794;9.182;2022-07-23T02:00:30;6.07;;;5.57;;
4313;SDS011;2170;48.794;9.182;2022-07-23T02:02:57;6.13;;;5.73;;
4313;SDS011;2170;48.794;9.182;2022-07-23T02:05:24;6.47;;;6.07;;
4313;SDS011;2170;48.794;9.182;2022-07-23T02:07:53;9.43;;;5.70;;
4313;SDS011;2170;48.794;9.182;2022-07-23T02:10:20;5.37;;;5.07;;
4313;SDS011;2170;48.794;9.182;2022-07-23T02:12:47;7.33;;;6.83;;
4313;SDS011;2170;48.794;9.182;2022-07-23T02:15:16;5.73;;;5.10;;
4313;SDS011;2170;48.794;9.182;2022-07-23T02:17:43;6.53;;;6.03;;
4313;SDS011;2170;48.794;9.182;2022-07-23T02:20:10;6.67;;;6.03;;
4313;SDS011;2170;48.794;9.182;2022-07-23T02:22:38;6.27;;;5.77;;
4313;SDS011;2170;48.794;9.182;2022-07-23T02:25:06;6.27;;;5.87;;
4313;SDS011;2170;48.794;9.182;2022-07-23T02:27:33;5.93;;;5.53;;
4313;SDS011;2170;48.794;9.182;2022-07-23T02:30:00;6.00;;;5.60;;
4313;SDS011;2170;48.794;9.182;2022-07-23T02:32:29;6.57;;;6.07;;
4313;SDS011;2170;48.794;9.182;2022-07-23T02:34:56;6.13;;;5.73;;
4313;SDS011;2170;48.794;9.182;2022-07-23T02:37:23;6.00;;;5.60;;
4313;SDS011;2170;48.794;9.182;2022-07-23T02:39:50;7.00;;;6.40;;
4313;SDS011;2170;48.794;9.182;2022-07-23T02:42:17;7.93;;;6.20;;
4313;SDS011;2170;48.794;9.182;2022-07-23T02:44:44;5.97;;;5.57;;
4313;SDS011;2170;48.794;9.182;2022-07-23T02:47:11;6.43;;;6.03;;
4313;SDS011;2170;48.794;9.182;2022-07-23T02:49:39;6.60;;;6.00;;
4313;SDS011;2170;48.794;9.182;2022-07-23T02:52:06;6.50;;;6.00;;
4313;SDS011;2170;48.794;9.182;2022-07-23T02:54:35;6.80;;;6.30;;
4313;SDS011;2170;48.794;9.182;2022-07-23T02:57:02;6.03;;;5.63;;
4313;SDS011;2170;48.794;9.182;2022-07-23T02:59:29;6.27;;;5.87;;
4313;SDS011;2170;48.794;9.182;2022-07-23T03:01:56;6.37;;;5.93;;
4313;SDS011;2170;48.794;9.182;2022-07-23T03:04:23;6.30;;;5.90;;
4313;SDS011;2170;48.794;9.182;2022-07-23T03:06:51;6.97;;;6.47;;
4313;SDS011;2170;48.794;9.182;2022-07-23T03:09:18;6.37;;;5.97;;
4313;SDS011;2170;48.794;9.182;2022-07-23T03:11:45;6.07;;;5.67;;
4313;SDS011;2170;48.794;9.182;2022-07-23T03:14:12;6.23;;;5.73;;
4313;SDS011;2170;48.794;9.182;2022-07-23T03:16:41;5.97;;;5.57;;
4313;SDS011;2170;48.794;9.182;2022-07-23T03:19:08;5.87;;;5.40;;
4313;SDS011;2170;48.794;9.182;2022-07-23T03:21:35;6.13;;;5.73;;
4313;SDS011;2170;48.794;9.182;2022-07-23T03:24:06;5.90;;;5.40;;
4313;SDS011;2170;48.794;9.182;2022-07-23T03:26:33;6.40;;;5.97;;
4313;SDS011;2170;48.794;9.182;2022-07-23T03:29:00;5.87;;;5.47;;
4313;SDS011;2170;48.794;9.182;2022-07-23T03:31:28;6.13;;;5.73;;
4313;SDS011;2170;48.794;9.182;2022-07-23T03:33:56;5.63;;;5.23;;
4313;SDS011;2170;48.794;9.182;2022-07-23T03:36:23;6.43;;;6.03;;
4313;SDS011;2170;48.794;9.182;2022-07-23T03:38:50;7.00;;;6.40;;
4313;SDS011;2170;48.794;9.182;2022-07-23T03:41:18;7.57;;;6.60;;
4313;SDS011;2170;48.794;9.182;2022-07-23T03:43:45;6.57;;;6.10;;
4313;SDS011;2170;48.794;9.182;2022-07-23T03:46:12;6.10;;;5.53;;
4313;SDS011;2170;48.794;9.182;2022-07-23T03:48:39;6.40;;;6.00;;
4313;SDS011;2170;48.794;9.182;2022-07-23T03:51:06;6.83;;;6.33;;
4313;SDS011;2170;48.794;9.182;2022-07-23T03:53:33;6.70;;;6.10;;
4313;SDS011;2170;48.794;9.182;2022-07-23T03:56:00;6.57;;;6.10;;
4313;SDS011;2170;48.794;9.182;2022-07-23T03:58:29;5.73;;;5.43;;
4313;SDS011;2170;48.794;9.182;2022-07-23T04:00:56;6.50;;;6.00;;
4313;SDS011;2170;48.794;9.182;2022-07-23T04:03:23;7.17;;;6.57;;
4313;SDS011;2170;48.794;9.182;2022-07-23T04:05:50;6.77;;;6.27;;
4313;SDS011;2170;48.794;9.182;2022-07-23T04:08:17;7.60;;;6.67;;
4313;SDS011;2170;48.794;9.182;2022-07-23T04:10:44;7.27;;;6.67;;
4313;SDS011;2170;48.794;9.182;2022-07-23T04:13:12;6.30;;;5.80;;
4313;SDS011;2170;48.794;9.182;2022-07-23T04:15:40;7.03;;;6.60;;
4313;SDS011;2170;48.794;9.182;2022-07-23T04:18:07;6.77;;;6.10;;
4313;SDS011;2170;48.794;9.182;2022-07-23T04:20:34;6.67;;;6.17;;
4313;SDS011;2170;48.794;9.182;2022-07-23T04:23:01;7.30;;;6.80;;
4313;SDS011;2170;48.794;9.182;2022-07-23T04:25:28;7.43;;;6.93;;
4313;SDS011;2170;48.794;9.182;2022-07-23T04:27:55;6.47;;;5.97;;
4313;SDS011;2170;48.794;9.182;2022-07-23T04:30:22;7.40;;;6.90;;
4313;SDS011;2170;48.794;9.182;2022-07-23T04:32:51;7.47;;;6.87;;
4313;SDS011;2170;48.794;9.182;2022-07-23T04:35:18;6.63;;;6.23;;
4313;SDS011;2170;48.794;9.182;2022-07-23T04:37:45;6.70;;;6.20;;
4313;SDS011;2170;48.794;9.182;2022-07-23T04:40:12;6.93;;;6.53;;
4313;SDS011;2170;48.794;9.182;2022-07-23T04:42:39;6.87;;;6.37;;
4313;SDS011;2170;48.794;9.182;2022-07-23T04:45:06;7.37;;;6.77;;
4313;SDS011;2170;48.794;9.182;2022-07-23T04:47:34;6.73;;;6.23;;
4313;SDS011;2170;48.794;9.182;2022-07-23T04:50:02;7.03;;;6.53;;
4313;SDS011;2170;48.794;9.182;2022-07-23T04:52:29;6.83;;;6.37;;
4313;SDS011;2170;48.794;9.182;2022-07-23T04:54:56;7.93;;;6.67;;
4313;SDS011;2170;48.794;9.182;2022-07-23T04:57:23;7.97;;;7.30;;
4313;SDS011;2170;48.794;9.182;2022-07-23T04:59:50;7.47;;;6.77;;
4313;SDS011;2170;48.794;9.182;2022-07-23T05:02:17;7.53;;;6.93;;
4313;SDS011;2170;48.794;9.182;2022-07-23T05:04:44;6.93;;;6.53;;
4313;SDS011;2170;48.794;9.182;2022-07-23T05:07:13;7.30;;;6.70;;
4313;SDS011;2170;48.794;9.182;2022-07-23T05:09:40;7.90;;;7.30;;
4313;SDS011;2170;48.794;9.182;2022-07-23T05:12:07;7.13;;;6.53;;
4313;SDS011;2170;48.794;9.182;2022-07-23T05:14:34;7.20;;;6.60;;
4313;SDS011;2170;48.794;9.182;2022-07-23T05:17:01;7.20;;;6.60;;
4313;SDS011;2170;48.794;9.182;2022-07-23T05:19:28;6.77;;;6.30;;
4313;SDS011;2170;48.794;9.182;2022-07-23T05:21:55;7.40;;;6.90;;
4313;SDS011;2170;48.794;9.182;2022-07-23T05:24:23;7.40;;;6.97;;
4313;SDS011;2170;48.794;9.182;2022-07-23T05:26:50;7.23;;;6.60;;
4313;SDS011;2170;48.794;9.182;2022-07-23T05:29:17;6.70;;;6.20;;
4313;SDS011;2170;48.794;9.182;2022-07-23T05:31:44;6.47;;;6.07;;
4313;SDS011;2170;48.794;9.182;2022-07-23T05:34:11;7.37;;;6.87;;
4313;SDS011;2170;48.794;9.182;2022-07-23T05:36:38;7.20;;;6.70;;
4313;SDS011;2170;48.794;9.182;2022-07-23T05:39:05;8.07;;;7.37;;
4313;SDS011;2170;48.794;9.182;2022-07-23T05:41:34;7.00;;;6.40;;
4313;SDS011;2170;48.794;9.182;2022-07-23T05:44:01;6.43;;;5.97;;
4313;SDS011;2170;48.794;9.182;2022-07-23T05:46:28;6.80;;;6.30;;
4313;SDS011;2170;48.794;9.182;2022-07-23T05:48:55;7.40;;;6.90;;
4313;SDS011;2170;48.794;9.182;2022-07-23T05:51:22;7.37;;;6.87;;
4313;SDS011;2170;48.794;9.182;2022-07-23T05:53:50;7.20;;;6.73;;
4313;SDS011;2170;48.794;9.182;2022-07-23T05:56:17;7.90;;;7.30;;
4313;SDS011;2170;48.794;9.182;2022-07-23T05:58:46;7.10;;;6.60;;
4313;SDS011;2170;48.794;9.182;2022-07-23T06:01:13;8.03;;;7.33;;
4313;SDS011;2170;48.794;9.182;2022-07-23T06:03:40;7.33;;;6.73;;
4313;SDS011;2170;48.794;9.182;2022-07-23T06:06:07;7.70;;;7.20;;
4313;SDS011;2170;48.794;9.182;2022-07-23T06:08:34;7.17;;;6.67;;
4313;SDS011;2170;48.794;9.182;2022-07-23T06:11:01;7.50;;;7.00;;
4313;SDS011;2170;48.794;9.182;2022-07-23T06:13:28;7.33;;;6.83;;
4313;SDS011;2170;48.794;9.182;2022-07-23T06:15:56;7.73;;;7.10;;
4313;SDS011;2170;48.794;9.182;2022-07-23T06:18:23;7.10;;;6.70;;
4313;SDS011;2170;48.794;9.182;2022-07-23T06:20:51;8.27;;;7.67;;
4313;SDS011;2170;48.794;9.182;2022-07-23T06:23:17;7.30;;;6.80;;
4313;SDS011;2170;48.794;9.182;2022-07-23T06:25:45;6.90;;;6.50;;
4313;SDS011;2170;48.794;9.182;2022-07-23T06:28:12;7.60;;;7.10;;
4313;SDS011;2170;48.794;9.182;2022-07-23T06:30:39;7.60;;;7.10;;
4313;SDS011;2170;48.794;9.182;2022-07-23T06:33:07;7.70;;;7.20;;
4313;SDS011;2170;48.794;9.182;2022-07-23T06:35:34;7.87;;;7.27;;
4313;SDS011;2170;48.794;9.182;2022-07-23T06:38:01;7.27;;;6.70;;
4313;SDS011;2170;48.794;9.182;2022-07-23T06:40:28;7.63;;;7.03;;
4313;SDS011;2170;48.794;9.182;2022-07-23T06:42:55;7.63;;;7.03;;
4313;SDS011;2170;48.794;9.182;2022-07-23T06:45:22;7.70;;;7.00;;
4313;SDS011;2170;48.794;9.182;2022-07-23T06:47:49;8.73;;;8.03;;
4313;SDS011;2170;48.794;9.182;2022-07-23T06:50:18;8.47;;;7.83;;
4313;SDS011;2170;48.794;9.182;2022-07-23T06:52:45;8.20;;;7.53;;
4313;SDS011;2170;48.794;9.182;2022-07-23T06:55:12;8.00;;;6.97;;
4313;SDS011;2170;48.794;9.182;2022-07-23T06:57:39;7.80;;;7.10;;
4313;SDS011;2170;48.794;9.182;2022-07-23T07:00:06;7.90;;;7.30;;
4313;SDS011;2170;48.794;9.182;2022-07-23T07:02:34;7.63;;;7.13;;
4313;SDS011;2170;48.794;9.182;2022-07-23T07:05:01;8.00;;;7.40;;
4313;SDS011;2170;48.794;9.182;2022-07-23T07:07:29;7.57;;;7.07;;
4313;SDS011;2170;48.794;9.182;2022-07-23T07:09:56;8.00;;;7.20;;
4313;SDS011;2170;48.794;9.182;2022-07-23T07:12:23;8.53;;;7.83;;
4313;SDS011;2170;48.794;9.182;2022-07-23T07:14:50;8.10;;;7.57;;
4313;SDS011;2170;48.794;9.182;2022-07-23T07:17:18;7.77;;;7.20;;
4313;SDS011;2170;48.794;9.182;2022-07-23T07:19:45;8.87;;;8.10;;
4313;SDS011;2170;48.794;9.182;2022-07-23T07:22:12;8.40;;;7.50;;
4313;SDS011;2170;48.794;9.182;2022-07-23T07:24:40;8.30;;;7.70;;
4313;SDS011;2170;48.794;9.182;2022-07-23T07:27:07;8.30;;;7.60;;
4313;SDS011;2170;48.794;9.182;2022-07-23T07:29:34;8.53;;;7.83;;
4313;SDS011;2170;48.794;9.182;2022-07-23T07:32:01;8.40;;;7.70;;
4313;SDS011;2170;48.794;9.182;2022-07-23T07:34:28;8.63;;;7.97;;
4313;SDS011;2170;48.794;9.182;2022-07-23T07:36:55;7.90;;;7.37;;
4313;SDS011;2170;48.794;9.182;2022-07-23T07:39:22;8.13;;;7.33;;
4313;SDS011;2170;48.794;9.182;2022-07-23T07:41:51;7.97;;;7.37;;
4313;SDS011;2170;48.794;9.182;2022-07-23T07:44:18;8.63;;;7.83;;
4313;SDS011;2170;48.794;9.182;2022-07-23T07:46:45;8.37;;;7.67;;
4313;SDS011;2170;48.794;9.182;2022-07-23T07:49:12;8.90;;;8.10;;
4313;SDS011;2170;48.794;9.182;2022-07-23T07:51:42;7.63;;;7.13;;
4313;SDS011;2170;48.794;9.182;2022-07-23T07:54:09;8.20;;;7.60;;
4313;SDS011;2170;48.794;9.182;2022-07-23T07:56:36;8.43;;;7.83;;
4313;SDS011;2170;48.794;9.182;2022-07-23T07:59:05;7.50;;;7.00;;
4313;SDS011;2170;48.794;9.182;2022-07-23T08:01:32;7.77;;;7.00;;
4313;SDS011;2170;48.794;9.182;2022-07-23T08:03:59;8.57;;;7.87;;
4313;SDS011;2170;48.794;9.182;2022-07-23T08:06:26;7.57;;;7.00;;
4313;SDS011;2170;48.794;9.182;2022-07-23T08:08:53;8.30;;;7.70;;
4313;SDS011;2170;48.794;9.182;2022-07-23T08:11:20;8.10;;;7.40;;
4313;SDS011;2170;48.794;9.182;2022-07-23T08:13:47;10.30;;;9.43;;
4313;SDS011;2170;48.794;9.182;2022-07-23T08:16:16;7.63;;;7.13;;
4313;SDS011;2170;48.794;9.182;2022-07-23T08:18:43;8.30;;;7.50;;
4313;SDS011;2170;48.794;9.182;2022-07-23T08:21:10;7.10;;;6.63;;
4313;SDS011;2170;48.794;9.182;2022-07-23T08:23:37;7.10;;;6.60;;
4313;SDS011;2170;48.794;9.182;2022-07-23T08:26:04;9.77;;;8.47;;
4313;SDS011;2170;48.794;9.182;2022-07-23T08:28:31;7.60;;;7.00;;
4313;SDS011;2170;48.794;9.182;2022-07-23T08:30:59;7.00;;;6.50;;
4313;SDS011;2170;48.794;9.182;2022-07-23T08:33:27;7.90;;;7.30;;
4313;SDS011;2170;48.794;9.182;2022-07-23T08:35:54;7.53;;;6.93;;
4313;SDS011;2170;48.794;9.182;2022-07-23T08:38:21;7.67;;;6.97;;
4313;SDS011;2170;48.794;9.182;2022-07-23T08:40:50;7.17;;;6.67;;
4313;SDS011;2170;48.794;9.182;2022-07-23T08:43:19;8.30;;;7.70;;
4313;SDS011;2170;48.794;9.182;2022-07-23T08:45:46;7.00;;;6.60;;
4313;SDS011;2170;48.794;9.182;2022-07-23T08:48:14;7.57;;;7.07;;
4313;SDS011;2170;48.794;9.182;2022-07-23T08:50:44;7.50;;;7.00;;
4313;SDS011;2170;48.794;9.182;2022-07-23T08:53:11;7.73;;;7.13;;
4313;SDS011;2170;48.794;9.182;2022-07-23T08:55:38;7.70;;;7.10;;
4313;SDS011;2170;48.794;9.182;2022-07-23T08:58:05;8.10;;;7.50;;
4313;SDS011;2170;48.794;9.182;2022-07-23T09:00:32;7.70;;;7.20;;
4313;SDS011;2170;48.794;9.182;2022-07-23T09:02:59;7.70;;;7.10;;
4313;SDS011;2170;48.794;9.182;2022-07-23T09:05:26;7.50;;;7.00;;
4313;SDS011;2170;48.794;9.182;2022-07-23T09:08:08;7.40;;;6.90;;
4313;SDS011;2170;48.794;9.182;2022-07-23T09:10:42;7.97;;;7.37;;
4313;SDS011;2170;48.794;9.182;2022-07-23T09:13:21;7.23;;;6.73;;
4313;SDS011;2170;48.794;9.182;2022-07-23T09:15:49;7.70;;;7.20;;
4313;SDS011;2170;48.794;9.182;2022-07-23T09:18:16;7.23;;;6.73;;
4313;SDS011;2170;48.794;9.182;2022-07-23T09:20:43;7.67;;;7.07;;
4313;SDS011;2170;48.794;9.182;2022-07-23T09:23:12;7.07;;;6.67;;
4313;SDS011;2170;48.794;9.182;2022-07-23T09:25:39;9.30;;;7.00;;
4313;SDS011;2170;48.794;9.182;2022-07-23T09:28:06;7.40;;;6.90;;
4313;SDS011;2170;48.794;9.182;2022-07-23T09:30:33;7.57;;;6.97;;
4313;SDS011;2170;48.794;9.182;2022-07-23T09:33:04;7.93;;;7.40;;
4313;SDS011;2170;48.794;9.182;2022-07-23T09:35:44;8.07;;;7.37;;
4313;SDS011;2170;48.794;9.182;2022-07-23T09:38:12;7.63;;;7.03;;
4313;SDS011;2170;48.794;9.182;2022-07-23T09:40:39;7.60;;;7.10;;
4313;SDS011;2170;48.794;9.182;2022-07-23T09:43:07;6.90;;;6.40;;
4313;SDS011;2170;48.794;9.182;2022-07-23T09:45:34;6.97;;;6.57;;
4313;SDS011;2170;48.794;9.182;2022-07-23T09:48:11;6.73;;;6.33;;
4313;SDS011;2170;48.794;9.182;2022-07-23T09:50:39;7.83;;;7.33;;
4313;SDS011;2170;48.794;9.182;2022-07-23T09:53:06;7.83;;;7.23;;
4313;SDS011;2170;48.794;9.182;2022-07-23T09:55:35;7.00;;;6.50;;
4313;SDS011;2170;48.794;9.182;2022-07-23T09:58:03;7.03;;;6.57;;
4313;SDS011;2170;48.794;9.182;2022-07-23T10:00:32;7.47;;;6.77;;
4313;SDS011;2170;48.794;9.182;2022-07-23T10:02:59;6.87;;;6.37;;
4313;SDS011;2170;48.794;9.182;2022-07-23T10:05:28;6.57;;;6.10;;
4313;SDS011;2170;48.794;9.182;2022-07-23T10:07:55;7.40;;;6.80;;
4313;SDS011;2170;48.794;9.182;2022-07-23T10:10:22;6.90;;;6.40;;
4313;SDS011;2170;48.794;9.182;2022-07-23T10:12:52;6.90;;;6.20;;
4313;SDS011;2170;48.794;9.182;2022-07-23T10:15:45;7.00;;;6.50;;
4313;SDS011;2170;48.794;9.182;2022-07-23T10:18:13;7.20;;;6.70;;
4313;SDS011;2170;48.794;9.182;2022-07-23T10:20:40;6.47;;;5.97;;
4313;SDS011;2170;48.794;9.182;2022-07-23T10:23:10;6.83;;;6.43;;
4313;SDS011;2170;48.794;9.182;2022-07-23T10:25:40;6.63;;;6.13;;
4313;SDS011;2170;48.794;9.182;2022-07-23T10:31:02;6.47;;;5.97;;
4313;SDS011;2170;48.794;9.182;2022-07-23T10:33:30;6.30;;;5.90;;
4313;SDS011;2170;48.794;9.182;2022-07-23T10:36:01;6.50;;;6.00;;
4313;SDS011;2170;48.794;9.182;2022-07-23T10:38:30;5.77;;;5.43;;
4313;SDS011;2170;48.794;9.182;2022-07-23T10:40:58;6.63;;;6.23;;
4313;SDS011;2170;48.794;9.182;2022-07-23T10:43:25;6.57;;;6.07;;
4313;SDS011;2170;48.794;9.182;2022-07-23T10:45:53;6.60;;;6.10;;
4313;SDS011;2170;48.794;9.182;2022-07-23T10:48:22;6.60;;;6.20;;
4313;SDS011;2170;48.794;9.182;2022-07-23T10:51:06;5.87;;;5.50;;
4313;SDS011;2170;48.794;9.182;2022-07-23T10:53:52;6.23;;;5.90;;
4313;SDS011;2170;48.794;9.182;2022-07-23T10:59:02;6.10;;;5.70;;
4313;SDS011;2170;48.794;9.182;2022-07-23T11:01:34;5.57;;;5.17;;
4313;SDS011;2170;48.794;9.182;2022-07-23T11:04:03;5.70;;;5.40;;
4313;SDS011;2170;48.794;9.182;2022-07-23T11:09:23;7.37;;;6.77;;
4313;SDS011;2170;48.794;9.182;2022-07-23T11:17:18;6.70;;;6.20;;
4313;SDS011;2170;48.794;9.182;2022-07-23T11:25:03;7.10;;;6.60;;
4313;SDS011;2170;48.794;9.182;2022-07-23T11:27:36;5.80;;;5.50;;
4313;SDS011;2170;48.794;9.182;2022-07-23T11:30:04;6.07;;;5.67;;
4313;SDS011;2170;48.794;9.182;2022-07-23T11:32:35;6.00;;;5.60;;
4313;SDS011;2170;48.794;9.182;2022-07-23T11:35:17;6.73;;;6.13;;
4313;SDS011;2170;48.794;9.182;2022-07-23T11:37:45;6.60;;;6.20;;
4313;SDS011;2170;48.794;9.182;2022-07-23T11:40:14;7.40;;;6.90;;
4313;SDS011;2170;48.794;9.182;2022-07-23T11:42:50;6.50;;;6.10;;
4313;SDS011;2170;48.794;9.182;2022-07-23T11:45:18;6.67;;;6.27;;
4313;SDS011;2170;48.794;9.182;2022-07-23T11:47:45;7.13;;;6.63;;
4313;SDS011;2170;48.794;9.182;2022-07-23T11:50:12;7.17;;;6.63;;
4313;SDS011;2170;48.794;9.182;2022-07-23T11:52:39;6.87;;;6.37;;
4313;SDS011;2170;48.794;9.182;2022-07-23T11:55:07;6.93;;;6.53;;
4313;SDS011;2170;48.794;9.182;2022-07-23T11:57:37;6.50;;;6.00;;
4313;SDS011;2170;48.794;9.182;2022-07-23T12:00:05;7.50;;;6.90;;
4313;SDS011;2170;48.794;9.182;2022-07-23T12:02:32;6.87;;;6.40;;
4313;SDS011;2170;48.794;9.182;2022-07-23T12:04:59;8.47;;;6.80;;
4313;SDS011;2170;48.794;9.182;2022-07-23T12:07:28;6.93;;;6.53;;
4313;SDS011;2170;48.794;9.182;2022-07-23T12:09:55;7.63;;;7.10;;
4313;SDS011;2170;48.794;9.182;2022-07-23T12:14:56;7.20;;;6.60;;
4313;SDS011;2170;48.794;9.182;2022-07-23T12:17:27;7.20;;;6.70;;
4313;SDS011;2170;48.794;9.182;2022-07-23T12:19:54;7.50;;;6.90;;
4313;SDS011;2170;48.794;9.182;2022-07-23T12:22:33;7.90;;;7.30;;
4313;SDS011;2170;48.794;9.182;2022-07-23T12:25:01;6.97;;;6.57;;
4313;SDS011;2170;48.794;9.182;2022-07-23T12:27:30;7.20;;;6.80;;
4313;SDS011;2170;48.794;9.182;2022-07-23T12:29:58;7.27;;;6.77;;
4313;SDS011;2170;48.794;9.182;2022-07-23T12:32:26;6.80;;;6.30;;
4313;SDS011;2170;48.794;9.182;2022-07-23T12:35:02;6.40;;;6.00;;
4313;SDS011;2170;48.794;9.182;2022-07-23T12:37:30;6.70;;;6.30;;
4313;SDS011;2170;48.794;9.182;2022-07-23T12:39:58;7.40;;;6.90;;
4313;SDS011;2170;48.794;9.182;2022-07-23T12:42:25;7.73;;;7.00;;
4313;SDS011;2170;48.794;9.182;2022-07-23T12:45:09;7.03;;;6.63;;
4313;SDS011;2170;48.794;9.182;2022-07-23T12:47:52;7.60;;;7.10;;
4313;SDS011;2170;48.794;9.182;2022-07-23T12:50:39;7.50;;;7.00;;
4313;SDS011;2170;48.794;9.182;2022-07-23T12:53:08;7.43;;;6.93;;
4313;SDS011;2170;48.794;9.182;2022-07-23T12:55:35;7.63;;;7.03;;
4313;SDS011;2170;48.794;9.182;2022-07-23T12:58:03;7.80;;;7.10;;
4313;SDS011;2170;48.794;9.182;2022-07-23T13:00:32;7.10;;;6.60;;
4313;SDS011;2170;48.794;9.182;2022-07-23T13:02:59;7.67;;;7.07;;
4313;SDS011;2170;48.794;9.182;2022-07-23T13:05:26;8.00;;;7.50;;
4313;SDS011;2170;48.794;9.182;2022-07-23T13:07:53;7.20;;;6.73;;
4313;SDS011;2170;48.794;9.182;2022-07-23T13:10:20;8.23;;;7.63;;
4313;SDS011;2170;48.794;9.182;2022-07-23T13:12:47;7.40;;;7.00;;
4313;SDS011;2170;48.794;9.182;2022-07-23T13:15:14;7.10;;;6.70;;
4313;SDS011;2170;48.794;9.182;2022-07-23T13:17:42;6.97;;;6.37;;
4313;SDS011;2170;48.794;9.182;2022-07-23T13:20:10;7.60;;;6.97;;
4313;SDS011;2170;48.794;9.182;2022-07-23T13:22:38;7.00;;;6.50;;
4313;SDS011;2170;48.794;9.182;2022-07-23T13:25:05;6.73;;;6.27;;
4313;SDS011;2170;48.794;9.182;2022-07-23T13:27:32;7.20;;;6.70;;
4313;SDS011;2170;48.794;9.182;2022-07-23T13:29:59;7.57;;;7.13;;
4313;SDS011;2170;48.794;9.182;2022-07-23T13:32:26;7.57;;;7.07;;
4313;SDS011;2170;48.794;9.182;2022-07-23T13:34:55;7.50;;;6.97;;
4313;SDS011;2170;48.794;9.182;2022-07-23T13:37:22;7.07;;;6.47;;
4313;SDS011;2170;48.794;9.182;2022-07-23T13:39:49;8.80;;;8.20;;
4313;SDS011;2170;48.794;9.182;2022-07-23T13:42:16;8.50;;;7.90;;
4313;SDS011;2170;48.794;9.182;2022-07-23T13:44:43;7.90;;;7.40;;
4313;SDS011;2170;48.794;9.182;2022-07-23T13:47:10;7.77;;;7.17;;
4313;SDS011;2170;48.794;9.182;2022-07-23T13:49:37;7.90;;;7.40;;
4313;SDS011;2170;48.794;9.182;2022-07-23T13:52:06;7.53;;;7.00;;
4313;SDS011;2170;48.794;9.182;2022-07-23T13:54:33;8.20;;;7.50;;
4313;SDS011;2170;48.794;9.182;2022-07-23T13:57:00;8.43;;;7.83;;
4313;SDS011;2170;48.794;9.182;2022-07-23T13:59:27;7.00;;;6.60;;
4313;SDS011;2170;48.794;9.182;2022-07-23T14:01:54;7.60;;;7.00;;
4313;SDS011;2170;48.794;9.182;2022-07-23T14:04:21;8.10;;;7.60;;
4313;SDS011;2170;48.794;9.182;2022-07-23T14:06:48;8.30;;;7.70;;
4313;SDS011;2170;48.794;9.182;2022-07-23T14:09:17;8.60;;;8.10;;
4313;SDS011;2170;48.794;9.182;2022-07-23T14:11:44;8.80;;;8.17;;
4313;SDS011;2170;48.794;9.182;2022-07-23T14:14:11;8.87;;;8.17;;
4313;SDS011;2170;48.794;9.182;2022-07-23T14:16:38;8.33;;;7.73;;
4313;SDS011;2170;48.794;9.182;2022-07-23T14:19:05;8.43;;;7.83;;
4313;SDS011;2170;48.794;9.182;2022-07-23T14:21:32;8.73;;;7.93;;
4313;SDS011;2170;48.794;9.182;2022-07-23T14:23:59;7.80;;;7.20;;
4313;SDS011;2170;48.794;9.182;2022-07-23T14:26:27;7.87;;;7.37;;
4313;SDS011;2170;48.794;9.182;2022-07-23T14:28:54;8.17;;;7.67;;
4313;SDS011;2170;48.794;9.182;2022-07-23T14:31:21;7.90;;;7.33;;
4313;SDS011;2170;48.794;9.182;2022-07-23T14:33:48;8.73;;;8.10;;
4313;SDS011;2170;48.794;9.182;2022-07-23T14:36:15;8.10;;;7.57;;
4313;SDS011;2170;48.794;9.182;2022-07-23T14:38:43;7.20;;;6.73;;
4313;SDS011;2170;48.794;9.182;2022-07-23T14:41:10;8.37;;;7.77;;
4313;SDS011;2170;48.794;9.182;2022-07-23T14:43:38;8.13;;;7.57;;
4313;SDS011;2170;48.794;9.182;2022-07-23T14:46:06;9.47;;;8.57;;
4313;SDS011;2170;48.794;9.182;2022-07-23T14:48:33;7.30;;;6.90;;
4313;SDS011;2170;48.794;9.182;2022-07-23T14:51:00;8.20;;;7.60;;
4313;SDS011;2170;48.794;9.182;2022-07-23T14:53:27;8.57;;;7.97;;
4313;SDS011;2170;48.794;9.182;2022-07-23T14:55:54;7.83;;;7.33;;
4313;SDS011;2170;48.794;9.182;2022-07-23T14:58:22;8.70;;;6.97;;
4313;SDS011;2170;48.794;9.182;2022-07-23T15:00:50;7.93;;;7.43;;
4313;SDS011;2170;48.794;9.182;2022-07-23T15:03:17;7.53;;;7.03;;
4313;SDS011;2170;48.794;9.182;2022-07-23T15:05:44;8.23;;;7.63;;
4313;SDS011;2170;48.794;9.182;2022-07-23T15:08:11;8.87;;;8.07;;
4313;SDS011;2170;48.794;9.182;2022-07-23T15:10:38;7.80;;;7.10;;
4313;SDS011;2170;48.794;9.182;2022-07-23T15:13:05;8.30;;;7.70;;
4313;SDS011;2170;48.794;9.182;2022-07-23T15:15:32;9.97;;;7.80;;
4313;SDS011;2170;48.794;9.182;2022-07-23T15:18:01;7.97;;;7.43;;
4313;SDS011;2170;48.794;9.182;2022-07-23T15:20:28;7.70;;;7.20;;
4313;SDS011;2170;48.794;9.182;2022-07-23T15:22:56;7.40;;;7.00;;
4313;SDS011;2170;48.794;9.182;2022-07-23T15:25:23;7.33;;;6.80;;
4313;SDS011;2170;48.794;9.182;2022-07-23T15:27:50;7.93;;;7.40;;
4313;SDS011;2170;48.794;9.182;2022-07-23T15:30:17;8.13;;;7.57;;
4313;SDS011;2170;48.794;9.182;2022-07-23T15:32:44;8.20;;;7.70;;
4313;SDS011;2170;48.794;9.182;2022-07-23T15:35:13;8.50;;;7.90;;
4313;SDS011;2170;48.794;9.182;2022-07-23T15:37:40;8.33;;;7.83;;
4313;SDS011;2170;48.794;9.182;2022-07-23T15:40:08;8.60;;;8.00;;